sensor_id;sensor_type;location;lat;lon;timestamp;pressure;altitude;pressure_sealevel;temperature;humidity
64713;BME280;51140;45.340;5.980;2023-07-20T00:00:22;97972.34;;;23.34;45.79
64713;BME280;51140;45.340;5.980;2023-07-20T00:02:50;97908.94;;;23.35;47.56
64713;BME280;51140;45.340;5.980;2023-07-20T00:05:16;97945.41;;;23.22;46.63
64713;BME280;51140;45.340;5.980;2023-07-20T00:07:44;97909.72;;;23.20;47.52
64713;BME280;51140;45.340;5.980;2023-07-20T00:10:09;97910.84;;;23.51;47.04
64713;BME280;51140;45.340;5.980;2023-07-20T00:12:35;97878.03;;;23.21;49.90
64713;BME280;51140;45.340;5.980;2023-07-20T00:15:00;97865.84;;;23.11;48.87
64713;BME280;51140;45.340;5.980;2023-07-20T00:17:26;97906.19;;;23.16;47.05
64713;BME280;51140;45.340;5.980;2023-07-20T00:19:51;97861.59;;;23.45;49.10
64713;BME280;51140;45.340;5.980;2023-07-20T00:22:17;97875.56;;;23.47;49.04
64713;BME280;51140;45.340;5.980;2023-07-20T00:24:42;97864.56;;;23.24;48.08
64713;BME280;51140;45.340;5.980;2023-07-20T00:27:08;97832.59;;;23.30;50.08
64713;BME280;51140;45.340;5.980;2023-07-20T00:29:34;97841.66;;;22.87;49.42
64713;BME280;51140;45.340;5.980;2023-07-20T00:32:00;97856.84;;;22.92;48.74
64713;BME280;51140;45.340;5.980;2023-07-20T00:34:26;97827.94;;;23.11;50.24
64713;BME280;51140;45.340;5.980;2023-07-20T00:36:51;97859.75;;;22.67;49.06
64713;BME280;51140;45.340;5.980;2023-07-20T00:39:16;97846.03;;;22.45;50.27
64713;BME280;51140;45.340;5.980;2023-07-20T00:41:42;97855.13;;;22.68;48.87
64713;BME280;51140;45.340;5.980;2023-07-20T00:44:07;97866.91;;;22.91;48.27
64713;BME280;51140;45.340;5.980;2023-07-20T00:46:33;97870.47;;;22.95;48.41
64713;BME280;51140;45.340;5.980;2023-07-20T00:48:59;97849.00;;;22.40;49.34
64713;BME280;51140;45.340;5.980;2023-07-20T00:51:25;97817.09;;;22.17;51.42
64713;BME280;51140;45.340;5.980;2023-07-20T00:53:51;97788.16;;;22.18;51.18
64713;BME280;51140;45.340;5.980;2023-07-20T00:56:17;97802.81;;;22.33;50.67
64713;BME280;51140;45.340;5.980;2023-07-20T00:58:43;97839.22;;;22.51;49.43
64713;BME280;51140;45.340;5.980;2023-07-20T01:01:09;97765.50;;;22.38;52.72
64713;BME280;51140;45.340;5.980;2023-07-20T01:03:34;97777.94;;;21.68;52.46
64713;BME280;51140;45.340;5.980;2023-07-20T01:06:23;97764.00;;;21.66;52.03
64713;BME280;51140;45.340;5.980;2023-07-20T01:09:13;97751.97;;;21.91;52.10
64713;BME280;51140;45.340;5.980;2023-07-20T01:12:02;97767.69;;;22.17;51.24
64713;BME280;51140;45.340;5.980;2023-07-20T01:14:31;97746.94;;;22.05;52.49
64713;BME280;51140;45.340;5.980;2023-07-20T01:16:57;97715.72;;;21.64;54.28
64713;BME280;51140;45.340;5.980;2023-07-20T01:19:22;97747.72;;;21.78;52.28
64713;BME280;51140;45.340;5.980;2023-07-20T01:22:02;97742.34;;;21.50;53.52
64713;BME280;51140;45.340;5.980;2023-07-20T01:30:14;97722.84;;;22.00;53.72
64713;BME280;51140;45.340;5.980;2023-07-20T01:32:42;97694.94;;;21.37;54.32
64713;BME280;51140;45.340;5.980;2023-07-20T01:35:10;97690.00;;;21.55;53.86
64713;BME280;51140;45.340;5.980;2023-07-20T01:37:41;97710.16;;;21.57;52.74
64713;BME280;51140;45.340;5.980;2023-07-20T01:40:08;97707.56;;;21.77;53.28
64713;BME280;51140;45.340;5.980;2023-07-20T01:42:34;97683.13;;;21.57;54.19
64713;BME280;51140;45.340;5.980;2023-07-20T01:44:59;97688.19;;;21.75;53.75
64713;BME280;51140;45.340;5.980;2023-07-20T01:47:25;97656.13;;;21.14;55.53
64713;BME280;51140;45.340;5.980;2023-07-20T01:49:50;97645.06;;;21.19;55.46
64713;BME280;51140;45.340;5.980;2023-07-20T01:52:15;97674.66;;;21.16;55.11
64713;BME280;51140;45.340;5.980;2023-07-20T01:54:41;97636.88;;;21.16;56.70
64713;BME280;51140;45.340;5.980;2023-07-20T01:57:06;97660.34;;;20.87;55.06
64713;BME280;51140;45.340;5.980;2023-07-20T01:59:31;97666.31;;;21.21;54.70
64713;BME280;51140;45.340;5.980;2023-07-20T02:01:57;97643.13;;;21.32;55.58
64713;BME280;51140;45.340;5.980;2023-07-20T02:04:22;97670.47;;;21.46;54.37
64713;BME280;51140;45.340;5.980;2023-07-20T02:06:47;97675.28;;;21.52;54.54
64713;BME280;51140;45.340;5.980;2023-07-20T02:09:13;97681.97;;;21.43;54.69
64713;BME280;51140;45.340;5.980;2023-07-20T02:11:38;97657.28;;;21.29;55.11
64713;BME280;51140;45.340;5.980;2023-07-20T02:14:03;97675.72;;;21.27;54.84
64713;BME280;51140;45.340;5.980;2023-07-20T02:16:29;97647.53;;;20.84;56.04
64713;BME280;51140;45.340;5.980;2023-07-20T02:18:54;97656.72;;;20.95;55.49
64713;BME280;51140;45.340;5.980;2023-07-20T02:21:23;97659.28;;;21.04;54.79
64713;BME280;51140;45.340;5.980;2023-07-20T02:23:48;97650.63;;;21.10;55.39
64713;BME280;51140;45.340;5.980;2023-07-20T02:26:14;97665.19;;;21.22;54.51
64713;BME280;51140;45.340;5.980;2023-07-20T02:28:40;97648.69;;;21.39;55.58
64713;BME280;51140;45.340;5.980;2023-07-20T02:31:06;97642.09;;;20.96;55.79
64713;BME280;51140;45.340;5.980;2023-07-20T02:33:31;97637.56;;;21.00;56.33
64713;BME280;51140;45.340;5.980;2023-07-20T02:35:57;97673.81;;;21.27;54.39
64713;BME280;51140;45.340;5.980;2023-07-20T02:38:22;97646.44;;;21.13;55.89
64713;BME280;51140;45.340;5.980;2023-07-20T02:40:48;97652.41;;;21.06;56.22
64713;BME280;51140;45.340;5.980;2023-07-20T02:43:13;97654.00;;;21.07;56.09
64713;BME280;51140;45.340;5.980;2023-07-20T02:45:41;97626.34;;;20.71;57.56
64713;BME280;51140;45.340;5.980;2023-07-20T02:48:08;97629.97;;;20.63;56.73
64713;BME280;51140;45.340;5.980;2023-07-20T02:50:33;97618.03;;;20.64;58.03
64713;BME280;51140;45.340;5.980;2023-07-20T02:53:00;97627.69;;;20.37;58.34
64713;BME280;51140;45.340;5.980;2023-07-20T02:55:25;97614.75;;;20.42;57.84
64713;BME280;51140;45.340;5.980;2023-07-20T02:57:50;97606.13;;;20.25;59.60
64713;BME280;51140;45.340;5.980;2023-07-20T03:00:16;97608.22;;;20.43;59.31
64713;BME280;51140;45.340;5.980;2023-07-20T03:02:42;97654.50;;;20.33;59.17
64713;BME280;51140;45.340;5.980;2023-07-20T03:05:07;97721.75;;;20.18;59.79
64713;BME280;51140;45.340;5.980;2023-07-20T03:07:33;97835.34;;;20.52;56.51
64713;BME280;51140;45.340;5.980;2023-07-20T03:09:58;97847.84;;;20.81;57.97
64713;BME280;51140;45.340;5.980;2023-07-20T03:12:24;97916.47;;;20.47;57.82
64713;BME280;51140;45.340;5.980;2023-07-20T03:14:50;97959.44;;;20.65;56.65
64713;BME280;51140;45.340;5.980;2023-07-20T03:17:15;97981.09;;;20.56;57.19
64713;BME280;51140;45.340;5.980;2023-07-20T03:19:40;98000.69;;;20.65;56.65
64713;BME280;51140;45.340;5.980;2023-07-20T03:22:06;98026.59;;;20.25;59.12
64713;BME280;51140;45.340;5.980;2023-07-20T03:24:32;98085.56;;;20.47;57.55
64713;BME280;51140;45.340;5.980;2023-07-20T03:26:58;98090.72;;;20.11;59.80
64713;BME280;51140;45.340;5.980;2023-07-20T03:29:23;98104.78;;;20.16;58.79
64713;BME280;51140;45.340;5.980;2023-07-20T03:31:49;98093.22;;;20.16;59.56
64713;BME280;51140;45.340;5.980;2023-07-20T03:34:15;98103.69;;;20.17;59.97
64713;BME280;51140;45.340;5.980;2023-07-20T03:36:40;98110.31;;;20.20;59.61
64713;BME280;51140;45.340;5.980;2023-07-20T03:39:05;98097.13;;;19.97;60.32
64713;BME280;51140;45.340;5.980;2023-07-20T03:41:31;98101.25;;;19.95;59.94
64713;BME280;51140;45.340;5.980;2023-07-20T03:43:57;98108.06;;;20.22;58.88
64713;BME280;51140;45.340;5.980;2023-07-20T03:46:22;98094.72;;;20.05;59.66
64713;BME280;51140;45.340;5.980;2023-07-20T03:48:48;98109.13;;;20.09;59.81
64713;BME280;51140;45.340;5.980;2023-07-20T03:51:13;98116.66;;;19.94;59.14
64713;BME280;51140;45.340;5.980;2023-07-20T03:53:39;98117.50;;;20.07;59.48
64713;BME280;51140;45.340;5.980;2023-07-20T03:56:04;98125.28;;;20.09;59.42
64713;BME280;51140;45.340;5.980;2023-07-20T03:58:29;98130.56;;;19.96;60.51
64713;BME280;51140;45.340;5.980;2023-07-20T04:00:55;98121.56;;;19.92;59.81
64713;BME280;51140;45.340;5.980;2023-07-20T04:03:20;98120.78;;;19.83;60.41
64713;BME280;51140;45.340;5.980;2023-07-20T04:05:46;98128.19;;;19.95;59.75
64713;BME280;51140;45.340;5.980;2023-07-20T04:08:12;98125.09;;;19.84;60.10
64713;BME280;51140;45.340;5.980;2023-07-20T04:10:38;98123.88;;;20.03;59.54
64713;BME280;51140;45.340;5.980;2023-07-20T04:13:04;98120.00;;;20.12;59.69
64713;BME280;51140;45.340;5.980;2023-07-20T04:15:30;98124.09;;;20.18;59.15
64713;BME280;51140;45.340;5.980;2023-07-20T04:17:56;98127.22;;;19.99;59.85
64713;BME280;51140;45.340;5.980;2023-07-20T04:20:22;98126.72;;;20.06;60.58
64713;BME280;51140;45.340;5.980;2023-07-20T04:22:48;98132.16;;;20.27;58.78
64713;BME280;51140;45.340;5.980;2023-07-20T04:25:13;98126.78;;;20.27;58.19
64713;BME280;51140;45.340;5.980;2023-07-20T04:27:39;98137.91;;;20.25;58.76
64713;BME280;51140;45.340;5.980;2023-07-20T04:30:07;98136.22;;;20.04;58.82
64713;BME280;51140;45.340;5.980;2023-07-20T04:32:33;98143.44;;;19.91;59.79
64713;BME280;51140;45.340;5.980;2023-07-20T04:34:59;98132.03;;;19.94;59.52
64713;BME280;51140;45.340;5.980;2023-07-20T04:37:24;98135.16;;;19.96;58.79
64713;BME280;51140;45.340;5.980;2023-07-20T04:39:49;98140.50;;;19.75;59.88
64713;BME280;51140;45.340;5.980;2023-07-20T04:42:15;98126.97;;;19.84;59.58
64713;BME280;51140;45.340;5.980;2023-07-20T04:44:41;98131.50;;;19.71;60.36
64713;BME280;51140;45.340;5.980;2023-07-20T04:47:06;98125.72;;;19.81;61.77
64713;BME280;51140;45.340;5.980;2023-07-20T04:49:33;98129.88;;;20.08;61.39
64713;BME280;51140;45.340;5.980;2023-07-20T04:51:59;98136.00;;;19.88;61.31
64713;BME280;51140;45.340;5.980;2023-07-20T04:54:24;98130.69;;;20.09;60.21
64713;BME280;51140;45.340;5.980;2023-07-20T04:56:52;98137.97;;;19.70;61.04
64713;BME280;51140;45.340;5.980;2023-07-20T04:59:18;98136.66;;;19.85;59.72
64713;BME280;51140;45.340;5.980;2023-07-20T05:01:43;98141.69;;;19.57;61.51
64713;BME280;51140;45.340;5.980;2023-07-20T05:04:09;98134.41;;;19.87;61.16
64713;BME280;51140;45.340;5.980;2023-07-20T05:06:34;98138.44;;;19.72;60.79
64713;BME280;51140;45.340;5.980;2023-07-20T05:09:00;98128.84;;;19.63;61.57
64713;BME280;51140;45.340;5.980;2023-07-20T05:11:25;98119.31;;;19.65;60.21
64713;BME280;51140;45.340;5.980;2023-07-20T05:13:50;98129.91;;;19.70;59.89
64713;BME280;51140;45.340;5.980;2023-07-20T05:16:16;98127.66;;;19.72;59.82
64713;BME280;51140;45.340;5.980;2023-07-20T05:18:42;98129.59;;;19.72;60.88
64713;BME280;51140;45.340;5.980;2023-07-20T05:21:07;98131.13;;;19.81;61.37
64713;BME280;51140;45.340;5.980;2023-07-20T05:23:33;98140.03;;;19.73;62.52
64713;BME280;51140;45.340;5.980;2023-07-20T05:25:59;98130.84;;;19.74;61.91
64713;BME280;51140;45.340;5.980;2023-07-20T05:28:25;98127.66;;;19.72;61.97
64713;BME280;51140;45.340;5.980;2023-07-20T05:30:54;98129.91;;;19.70;61.49
64713;BME280;51140;45.340;5.980;2023-07-20T05:33:20;98126.81;;;19.51;62.85
64713;BME280;51140;45.340;5.980;2023-07-20T05:35:46;98119.97;;;19.62;62.11
64713;BME280;51140;45.340;5.980;2023-07-20T05:38:12;98125.31;;;19.71;62.62
64713;BME280;51140;45.340;5.980;2023-07-20T05:40:38;98128.84;;;19.63;64.16
64713;BME280;51140;45.340;5.980;2023-07-20T05:43:03;98126.41;;;19.70;62.67
64713;BME280;51140;45.340;5.980;2023-07-20T05:45:29;98127.59;;;19.89;60.36
64713;BME280;51140;45.340;5.980;2023-07-20T05:47:54;98133.03;;;20.10;60.43
64713;BME280;51140;45.340;5.980;2023-07-20T05:50:19;98138.94;;;20.04;60.36
64713;BME280;51140;45.340;5.980;2023-07-20T05:52:45;98134.84;;;19.97;60.56
64713;BME280;51140;45.340;5.980;2023-07-20T05:55:10;98151.41;;;19.79;60.78
64713;BME280;51140;45.340;5.980;2023-07-20T05:57:36;98151.22;;;19.84;60.39
64713;BME280;51140;45.340;5.980;2023-07-20T06:00:05;98154.41;;;19.86;61.27
64713;BME280;51140;45.340;5.980;2023-07-20T06:02:31;98155.06;;;19.83;62.34
64713;BME280;51140;45.340;5.980;2023-07-20T06:04:58;98157.13;;;19.77;61.50
64713;BME280;51140;45.340;5.980;2023-07-20T06:07:23;98147.09;;;20.16;61.27
64713;BME280;51140;45.340;5.980;2023-07-20T06:09:49;98143.66;;;20.07;60.72
64713;BME280;51140;45.340;5.980;2023-07-20T06:12:14;98136.53;;;20.11;59.92
64713;BME280;51140;45.340;5.980;2023-07-20T06:14:40;98137.25;;;20.28;61.33
64713;BME280;51140;45.340;5.980;2023-07-20T06:17:05;98135.41;;;20.12;61.36
64713;BME280;51140;45.340;5.980;2023-07-20T06:19:31;98131.56;;;19.83;61.37
64713;BME280;51140;45.340;5.980;2023-07-20T06:21:56;98136.56;;;20.02;60.66
64713;BME280;51140;45.340;5.980;2023-07-20T06:24:21;98141.16;;;20.02;61.36
64713;BME280;51140;45.340;5.980;2023-07-20T06:26:47;98130.38;;;20.02;62.50
64713;BME280;51140;45.340;5.980;2023-07-20T06:29:12;98138.19;;;19.94;60.32
64713;BME280;51140;45.340;5.980;2023-07-20T06:31:38;98134.00;;;20.35;60.67
64713;BME280;51140;45.340;5.980;2023-07-20T06:34:03;98130.34;;;20.60;61.24
64713;BME280;51140;45.340;5.980;2023-07-20T06:36:29;98133.13;;;20.51;61.86
64713;BME280;51140;45.340;5.980;2023-07-20T06:38:55;98132.31;;;20.22;62.90
64713;BME280;51140;45.340;5.980;2023-07-20T06:41:21;98119.03;;;20.46;61.09
64713;BME280;51140;45.340;5.980;2023-07-20T06:43:47;98129.03;;;20.16;61.77
64713;BME280;51140;45.340;5.980;2023-07-20T06:46:13;98128.63;;;20.35;61.86
64713;BME280;51140;45.340;5.980;2023-07-20T06:48:38;98125.66;;;20.28;63.27
64713;BME280;51140;45.340;5.980;2023-07-20T06:51:03;98124.66;;;20.32;63.29
64713;BME280;51140;45.340;5.980;2023-07-20T06:53:30;98114.13;;;20.19;61.49
64713;BME280;51140;45.340;5.980;2023-07-20T06:55:55;98115.06;;;20.23;61.96
64713;BME280;51140;45.340;5.980;2023-07-20T06:58:24;98118.72;;;20.18;60.40
64713;BME280;51140;45.340;5.980;2023-07-20T07:00:50;98117.41;;;20.24;62.11
64713;BME280;51140;45.340;5.980;2023-07-20T07:03:15;98118.06;;;20.21;61.75
64713;BME280;51140;45.340;5.980;2023-07-20T07:05:40;98110.16;;;20.25;60.67
64713;BME280;51140;45.340;5.980;2023-07-20T07:08:06;98111.09;;;20.29;60.55
64713;BME280;51140;45.340;5.980;2023-07-20T07:10:32;98109.03;;;20.26;61.63
64713;BME280;51140;45.340;5.980;2023-07-20T07:12:58;98110.47;;;20.44;61.24
64713;BME280;51140;45.340;5.980;2023-07-20T07:15:23;98105.59;;;20.58;61.11
64713;BME280;51140;45.340;5.980;2023-07-20T07:17:48;98108.44;;;20.82;61.02
64713;BME280;51140;45.340;5.980;2023-07-20T07:20:15;98108.16;;;21.41;59.33
64713;BME280;51140;45.340;5.980;2023-07-20T07:22:40;98110.72;;;21.25;59.28
64713;BME280;51140;45.340;5.980;2023-07-20T07:25:09;98110.66;;;21.46;59.02
64713;BME280;51140;45.340;5.980;2023-07-20T07:27:35;98126.06;;;22.94;54.77
64713;BME280;51140;45.340;5.980;2023-07-20T07:30:00;98237.81;;;25.83;46.79
64713;BME280;51140;45.340;5.980;2023-07-20T07:32:25;98406.22;;;27.47;41.09
64713;BME280;51140;45.340;5.980;2023-07-20T07:34:51;98458.97;;;28.51;38.95
64713;BME280;51140;45.340;5.980;2023-07-20T07:37:17;98293.28;;;26.92;42.96
64713;BME280;51140;45.340;5.980;2023-07-20T07:39:44;98431.53;;;29.21;38.11
64713;BME280;51140;45.340;5.980;2023-07-20T07:42:10;98634.06;;;31.24;33.41
64713;BME280;51140;45.340;5.980;2023-07-20T07:44:36;98660.03;;;31.86;32.45
64713;BME280;51140;45.340;5.980;2023-07-20T07:47:01;98676.91;;;31.95;32.66
64713;BME280;51140;45.340;5.980;2023-07-20T07:49:27;98624.38;;;32.07;32.83
64713;BME280;51140;45.340;5.980;2023-07-20T07:51:53;98674.53;;;32.29;31.03
64713;BME280;51140;45.340;5.980;2023-07-20T07:54:18;98706.25;;;32.83;30.32
64713;BME280;51140;45.340;5.980;2023-07-20T07:56:43;98669.03;;;32.40;30.70
64713;BME280;51140;45.340;5.980;2023-07-20T07:59:09;98687.41;;;32.74;30.77
64713;BME280;51140;45.340;5.980;2023-07-20T08:01:35;98646.34;;;32.07;31.30
64713;BME280;51140;45.340;5.980;2023-07-20T08:04:00;98654.66;;;33.15;30.58
64713;BME280;51140;45.340;5.980;2023-07-20T08:06:26;98634.06;;;32.54;31.48
64713;BME280;51140;45.340;5.980;2023-07-20T08:08:51;98656.97;;;33.82;30.32
64713;BME280;51140;45.340;5.980;2023-07-20T08:11:16;98689.41;;;34.12;29.91
64713;BME280;51140;45.340;5.980;2023-07-20T08:13:43;98669.47;;;33.94;29.39
64713;BME280;51140;45.340;5.980;2023-07-20T08:16:09;98690.91;;;34.20;28.92
64713;BME280;51140;45.340;5.980;2023-07-20T08:18:34;98651.53;;;33.79;29.94
64713;BME280;51140;45.340;5.980;2023-07-20T08:20:59;98645.88;;;33.38;30.25
64713;BME280;51140;45.340;5.980;2023-07-20T08:23:25;98641.53;;;33.40;30.22
64713;BME280;51140;45.340;5.980;2023-07-20T08:25:52;98642.13;;;34.17;28.68
64713;BME280;51140;45.340;5.980;2023-07-20T08:28:18;98650.94;;;33.47;29.47
64713;BME280;51140;45.340;5.980;2023-07-20T08:30:45;98627.22;;;34.11;29.83
64713;BME280;51140;45.340;5.980;2023-07-20T08:33:13;98676.56;;;33.95;28.26
64713;BME280;51140;45.340;5.980;2023-07-20T08:35:38;98638.41;;;33.38;29.65
64713;BME280;51140;45.340;5.980;2023-07-20T08:38:04;98535.94;;;32.48;32.11
64713;BME280;51140;45.340;5.980;2023-07-20T08:40:48;98571.00;;;31.38;31.23
64713;BME280;51140;45.340;5.980;2023-07-20T08:43:15;98460.47;;;32.66;33.65
64713;BME280;51140;45.340;5.980;2023-07-20T08:45:44;98547.69;;;32.55;29.59
64713;BME280;51140;45.340;5.980;2023-07-20T08:48:11;98514.97;;;32.78;31.93
64713;BME280;51140;45.340;5.980;2023-07-20T08:50:38;98510.47;;;33.06;31.20
64713;BME280;51140;45.340;5.980;2023-07-20T08:53:03;98478.50;;;33.26;32.01
64713;BME280;51140;45.340;5.980;2023-07-20T08:55:30;98506.66;;;32.89;31.57
64713;BME280;51140;45.340;5.980;2023-07-20T08:57:57;98557.06;;;33.34;30.31
64713;BME280;51140;45.340;5.980;2023-07-20T09:00:24;98474.84;;;32.88;31.33
64713;BME280;51140;45.340;5.980;2023-07-20T09:02:51;98511.78;;;32.87;31.56
64713;BME280;51140;45.340;5.980;2023-07-20T09:05:17;98460.25;;;32.95;32.07
64713;BME280;51140;45.340;5.980;2023-07-20T09:07:43;98449.47;;;32.66;31.60
64713;BME280;51140;45.340;5.980;2023-07-20T09:10:08;98494.41;;;33.01;30.31
64713;BME280;51140;45.340;5.980;2023-07-20T09:12:38;98587.50;;;33.09;28.62
64713;BME280;51140;45.340;5.980;2023-07-20T09:15:05;98481.41;;;33.08;31.90
64713;BME280;51140;45.340;5.980;2023-07-20T09:17:30;98461.13;;;33.36;31.04
64713;BME280;51140;45.340;5.980;2023-07-20T09:19:56;98519.59;;;33.47;29.31
64713;BME280;51140;45.340;5.980;2023-07-20T09:22:21;98538.00;;;33.02;29.69
64713;BME280;51140;45.340;5.980;2023-07-20T09:24:47;98596.13;;;33.70;27.42
64713;BME280;51140;45.340;5.980;2023-07-20T09:27:12;98481.34;;;33.60;30.52
64713;BME280;51140;45.340;5.980;2023-07-20T09:29:48;98578.72;;;33.25;28.11
64713;BME280;51140;45.340;5.980;2023-07-20T09:32:18;98536.41;;;33.08;28.39
64713;BME280;51140;45.340;5.980;2023-07-20T09:34:45;98527.22;;;32.67;30.60
64713;BME280;51140;45.340;5.980;2023-07-20T09:37:10;98501.38;;;33.64;28.92
64713;BME280;51140;45.340;5.980;2023-07-20T09:39:44;98561.75;;;33.33;28.13
64713;BME280;51140;45.340;5.980;2023-07-20T09:42:11;98558.53;;;32.91;28.05
64713;BME280;51140;45.340;5.980;2023-07-20T09:44:38;98522.38;;;32.85;29.70
64713;BME280;51140;45.340;5.980;2023-07-20T09:47:04;98511.09;;;32.69;29.79
64713;BME280;51140;45.340;5.980;2023-07-20T09:49:29;98535.47;;;32.70;28.00
64713;BME280;51140;45.340;5.980;2023-07-20T09:51:55;98567.84;;;31.89;28.56
64713;BME280;51140;45.340;5.980;2023-07-20T09:54:22;98540.84;;;31.52;29.11
64713;BME280;51140;45.340;5.980;2023-07-20T09:56:50;98531.78;;;31.37;29.06
64713;BME280;51140;45.340;5.980;2023-07-20T09:59:16;98513.66;;;32.17;27.84
64713;BME280;51140;45.340;5.980;2023-07-20T10:01:42;98514.53;;;32.87;29.27
64713;BME280;51140;45.340;5.980;2023-07-20T10:04:09;98506.91;;;33.64;28.03
64713;BME280;51140;45.340;5.980;2023-07-20T10:06:39;98574.53;;;33.06;27.20
64713;BME280;51140;45.340;5.980;2023-07-20T10:09:07;98549.50;;;32.87;27.93
64713;BME280;51140;45.340;5.980;2023-07-20T10:11:36;98563.63;;;32.85;27.11
64713;BME280;51140;45.340;5.980;2023-07-20T10:14:04;98568.22;;;32.12;27.51
64713;BME280;51140;45.340;5.980;2023-07-20T10:16:36;98459.72;;;33.17;29.55
64713;BME280;51140;45.340;5.980;2023-07-20T10:22:30;98636.56;;;33.18;25.87
64713;BME280;51140;45.340;5.980;2023-07-20T10:24:59;98584.38;;;32.97;26.74
64713;BME280;51140;45.340;5.980;2023-07-20T10:27:26;98517.91;;;33.64;28.36
64713;BME280;51140;45.340;5.980;2023-07-20T10:29:52;98546.19;;;34.05;26.04
64713;BME280;51140;45.340;5.980;2023-07-20T10:32:21;98570.53;;;34.14;26.60
64713;BME280;51140;45.340;5.980;2023-07-20T10:34:56;98532.78;;;34.75;27.71
64713;BME280;51140;45.340;5.980;2023-07-20T10:40:33;98495.94;;;33.94;28.43
64713;BME280;51140;45.340;5.980;2023-07-20T10:43:04;98510.13;;;33.52;28.24
64713;BME280;51140;45.340;5.980;2023-07-20T10:47:58;98526.53;;;33.18;26.74
64713;BME280;51140;45.340;5.980;2023-07-20T10:50:28;98450.72;;;33.58;29.15
64713;BME280;51140;45.340;5.980;2023-07-20T10:53:14;98506.75;;;34.15;27.31
64713;BME280;51140;45.340;5.980;2023-07-20T10:55:43;98508.19;;;34.27;27.08
64713;BME280;51140;45.340;5.980;2023-07-20T10:58:11;98502.44;;;34.14;28.64
64713;BME280;51140;45.340;5.980;2023-07-20T11:00:38;98532.88;;;34.00;27.34
64713;BME280;51140;45.340;5.980;2023-07-20T11:03:34;98555.31;;;31.88;27.21
64713;BME280;51140;45.340;5.980;2023-07-20T11:09:13;98417.72;;;32.51;28.57
64713;BME280;51140;45.340;5.980;2023-07-20T11:11:47;98389.91;;;31.52;31.41
64713;BME280;51140;45.340;5.980;2023-07-20T11:16:48;98386.50;;;32.24;29.04
64713;BME280;51140;45.340;5.980;2023-07-20T11:19:20;98213.69;;;32.40;35.60
64713;BME280;51140;45.340;5.980;2023-07-20T11:21:55;98275.69;;;32.45;32.08
64713;BME280;51140;45.340;5.980;2023-07-20T11:24:22;98308.53;;;31.97;31.97
64713;BME280;51140;45.340;5.980;2023-07-20T11:26:54;98365.53;;;31.82;30.21
64713;BME280;51140;45.340;5.980;2023-07-20T11:29:22;98282.03;;;31.72;33.56
64713;BME280;51140;45.340;5.980;2023-07-20T11:31:48;98337.22;;;31.92;30.52
64713;BME280;51140;45.340;5.980;2023-07-20T11:34:16;98214.09;;;31.91;36.46
64713;BME280;51140;45.340;5.980;2023-07-20T11:36:47;98358.50;;;31.67;29.74
64713;BME280;51140;45.340;5.980;2023-07-20T11:39:14;98248.53;;;32.02;32.21
64713;BME280;51140;45.340;5.980;2023-07-20T11:41:46;98307.59;;;31.48;30.30
64713;BME280;51140;45.340;5.980;2023-07-20T11:44:12;98266.13;;;31.32;32.63
64713;BME280;51140;45.340;5.980;2023-07-20T11:46:41;98222.88;;;31.64;32.37
64713;BME280;51140;45.340;5.980;2023-07-20T11:49:08;98268.50;;;32.06;30.44
64713;BME280;51140;45.340;5.980;2023-07-20T11:51:34;98188.38;;;31.60;33.47
64713;BME280;51140;45.340;5.980;2023-07-20T11:54:01;98266.91;;;31.33;30.57
64713;BME280;51140;45.340;5.980;2023-07-20T11:56:27;98181.41;;;31.48;33.75
64713;BME280;51140;45.340;5.980;2023-07-20T11:58:57;98219.06;;;31.37;31.79
64713;BME280;51140;45.340;5.980;2023-07-20T12:01:24;98141.16;;;31.86;34.61
64713;BME280;51140;45.340;5.980;2023-07-20T12:03:51;98167.94;;;31.68;32.00
64713;BME280;51140;45.340;5.980;2023-07-20T12:06:17;98164.94;;;31.52;33.25
64713;BME280;51140;45.340;5.980;2023-07-20T12:08:43;98157.56;;;31.35;32.97
64713;BME280;51140;45.340;5.980;2023-07-20T12:11:09;98101.22;;;31.19;35.00
64713;BME280;51140;45.340;5.980;2023-07-20T12:13:44;98147.63;;;31.62;32.15
64713;BME280;51140;45.340;5.980;2023-07-20T12:16:19;98015.22;;;31.88;36.51
64713;BME280;51140;45.340;5.980;2023-07-20T12:18:45;98179.66;;;31.79;31.98
64713;BME280;51140;45.340;5.980;2023-07-20T12:21:11;98192.59;;;31.79;30.67
64713;BME280;51140;45.340;5.980;2023-07-20T12:23:40;98181.16;;;31.22;32.07
64713;BME280;51140;45.340;5.980;2023-07-20T12:26:09;98140.03;;;31.11;32.46
64713;BME280;51140;45.340;5.980;2023-07-20T12:28:42;98102.50;;;31.04;33.54
64713;BME280;51140;45.340;5.980;2023-07-20T12:31:10;98102.91;;;30.99;33.45
64713;BME280;51140;45.340;5.980;2023-07-20T12:33:39;97949.28;;;31.58;37.43
64713;BME280;51140;45.340;5.980;2023-07-20T12:36:04;98023.75;;;31.60;35.01
64713;BME280;51140;45.340;5.980;2023-07-20T12:38:30;98061.72;;;31.13;33.70
64713;BME280;51140;45.340;5.980;2023-07-20T12:40:59;98044.75;;;31.77;34.04
64713;BME280;51140;45.340;5.980;2023-07-20T12:43:25;97984.22;;;31.91;37.54
64713;BME280;51140;45.340;5.980;2023-07-20T12:45:50;98087.56;;;31.09;33.10
64713;BME280;51140;45.340;5.980;2023-07-20T12:48:16;97999.56;;;29.88;37.35
64713;BME280;51140;45.340;5.980;2023-07-20T12:50:41;97991.59;;;30.33;35.91
64713;BME280;51140;45.340;5.980;2023-07-20T12:53:07;97952.94;;;31.41;35.98
64713;BME280;51140;45.340;5.980;2023-07-20T12:55:32;97955.75;;;31.78;36.88
64713;BME280;51140;45.340;5.980;2023-07-20T12:57:58;97988.81;;;31.64;36.47
64713;BME280;51140;45.340;5.980;2023-07-20T13:00:23;98014.47;;;31.43;36.28
64713;BME280;51140;45.340;5.980;2023-07-20T13:02:50;98030.38;;;31.62;35.08
64713;BME280;51140;45.340;5.980;2023-07-20T13:05:15;98073.25;;;30.73;32.79
64713;BME280;51140;45.340;5.980;2023-07-20T13:07:41;98036.94;;;31.28;33.67
64713;BME280;51140;45.340;5.980;2023-07-20T13:10:08;97922.22;;;31.60;36.63
64713;BME280;51140;45.340;5.980;2023-07-20T13:12:34;97921.16;;;31.50;38.01
64713;BME280;51140;45.340;5.980;2023-07-20T13:15:05;97995.59;;;31.93;33.43
64713;BME280;51140;45.340;5.980;2023-07-20T13:17:32;98060.97;;;31.02;32.53